sensor_id;sensor_type;location;lat;lon;timestamp;temperature;humidity
6357;DHT22;3211;53.452;-2.264;2022-12-18T00:01:30;3.00;99.90
6357;DHT22;3211;53.452;-2.264;2022-12-18T00:04:00;3.00;99.90
6357;DHT22;3211;53.452;-2.264;2022-12-18T00:06:29;3.00;99.90
6357;DHT22;3211;53.452;-2.264;2022-12-18T00:08:57;3.00;99.90
6357;DHT22;3211;53.452;-2.264;2022-12-18T00:11:27;3.00;99.90
6357;DHT22;3211;53.452;-2.264;2022-12-18T00:13:56;3.00;99.90
6357;DHT22;3211;53.452;-2.264;2022-12-18T00:16:25;3.00;99.90
6357;DHT22;3211;53.452;-2.264;2022-12-18T00:18:54;3.00;99.90
6357;DHT22;3211;53.452;-2.264;2022-12-18T00:21:22;2.90;99.90
6357;DHT22;3211;53.452;-2.264;2022-12-18T00:23:50;3.00;99.90
6357;DHT22;3211;53.452;-2.264;2022-12-18T00:26:19;2.90;99.90
6357;DHT22;3211;53.452;-2.264;2022-12-18T00:28:46;2.90;99.90
6357;DHT22;3211;53.452;-2.264;2022-12-18T00:31:15;2.80;99.90
6357;DHT22;3211;53.452;-2.264;2022-12-18T00:33:42;2.80;99.90
6357;DHT22;3211;53.452;-2.264;2022-12-18T00:36:12;2.80;99.90
6357;DHT22;3211;53.452;-2.264;2022-12-18T00:38:40;2.80;99.90
6357;DHT22;3211;53.452;-2.264;2022-12-18T00:41:09;2.80;99.90
6357;DHT22;3211;53.452;-2.264;2022-12-18T00:43:37;2.80;99.90
6357;DHT22;3211;53.452;-2.264;2022-12-18T00:46:04;2.70;99.90
6357;DHT22;3211;53.452;-2.264;2022-12-18T00:48:31;2.70;99.90
6357;DHT22;3211;53.452;-2.264;2022-12-18T00:50:58;2.80;99.90
6357;DHT22;3211;53.452;-2.264;2022-12-18T00:53:25;2.50;99.90
6357;DHT22;3211;53.452;-2.264;2022-12-18T00:55:52;2.50;99.90
6357;DHT22;3211;53.452;-2.264;2022-12-18T00:58:20;2.50;99.90
6357;DHT22;3211;53.452;-2.264;2022-12-18T01:00:47;2.50;99.90
6357;DHT22;3211;53.452;-2.264;2022-12-18T01:03:14;2.50;99.90
6357;DHT22;3211;53.452;-2.264;2022-12-18T01:05:42;2.50;99.90
6357;DHT22;3211;53.452;-2.264;2022-12-18T01:08:09;2.40;99.90
6357;DHT22;3211;53.452;-2.264;2022-12-18T01:10:36;2.40;99.90
6357;DHT22;3211;53.452;-2.264;2022-12-18T01:13:06;2.50;99.90
6357;DHT22;3211;53.452;-2.264;2022-12-18T01:15:34;2.40;99.90
6357;DHT22;3211;53.452;-2.264;2022-12-18T01:18:01;2.30;99.90
6357;DHT22;3211;53.452;-2.264;2022-12-18T01:20:28;2.20;99.90
6357;DHT22;3211;53.452;-2.264;2022-12-18T01:22:55;2.10;99.90
6357;DHT22;3211;53.452;-2.264;2022-12-18T01:25:22;2.10;99.90
6357;DHT22;3211;53.452;-2.264;2022-12-18T01:27:49;2.10;99.90
6357;DHT22;3211;53.452;-2.264;2022-12-18T01:30:16;2.10;99.90
6357;DHT22;3211;53.452;-2.264;2022-12-18T01:32:44;2.20;99.90
6357;DHT22;3211;53.452;-2.264;2022-12-18T01:35:11;2.20;99.90
6357;DHT22;3211;53.452;-2.264;2022-12-18T01:37:38;2.10;99.90
6357;DHT22;3211;53.452;-2.264;2022-12-18T01:40:07;2.10;99.90
6357;DHT22;3211;53.452;-2.264;2022-12-18T01:42:34;2.00;99.90
6357;DHT22;3211;53.452;-2.264;2022-12-18T01:45:03;1.90;99.90
6357;DHT22;3211;53.452;-2.264;2022-12-18T01:47:38;2.00;99.90
6357;DHT22;3211;53.452;-2.264;2022-12-18T01:50:11;1.90;99.90
6357;DHT22;3211;53.452;-2.264;2022-12-18T01:52:38;1.90;99.90
6357;DHT22;3211;53.452;-2.264;2022-12-18T01:55:08;1.90;99.90
6357;DHT22;3211;53.452;-2.264;2022-12-18T01:57:36;1.80;99.90
6357;DHT22;3211;53.452;-2.264;2022-12-18T02:00:08;1.80;99.90
6357;DHT22;3211;53.452;-2.264;2022-12-18T02:02:36;1.80;99.90
6357;DHT22;3211;53.452;-2.264;2022-12-18T02:05:03;1.80;99.90
6357;DHT22;3211;53.452;-2.264;2022-12-18T02:07:40;1.90;99.90
6357;DHT22;3211;53.452;-2.264;2022-12-18T02:10:17;1.90;99.90
6357;DHT22;3211;53.452;-2.264;2022-12-18T02:12:49;1.90;99.90
6357;DHT22;3211;53.452;-2.264;2022-12-18T02:15:25;1.80;99.90
6357;DHT22;3211;53.452;-2.264;2022-12-18T02:17:56;1.80;99.90
6357;DHT22;3211;53.452;-2.264;2022-12-18T02:20:30;1.70;99.90
6357;DHT22;3211;53.452;-2.264;2022-12-18T02:23:09;1.70;99.90
6357;DHT22;3211;53.452;-2.264;2022-12-18T02:25:59;1.70;99.90
6357;DHT22;3211;53.452;-2.264;2022-12-18T02:28:31;1.70;99.90
6357;DHT22;3211;53.452;-2.264;2022-12-18T02:31:01;1.70;99.90
6357;DHT22;3211;53.452;-2.264;2022-12-18T02:33:30;1.80;99.90
6357;DHT22;3211;53.452;-2.264;2022-12-18T02:36:00;1.90;99.90
6357;DHT22;3211;53.452;-2.264;2022-12-18T02:38:29;1.80;99.90
6357;DHT22;3211;53.452;-2.264;2022-12-18T02:40:57;1.80;99.90
6357;DHT22;3211;53.452;-2.264;2022-12-18T02:43:26;1.90;99.90
6357;DHT22;3211;53.452;-2.264;2022-12-18T02:45:56;1.80;99.90
6357;DHT22;3211;53.452;-2.264;2022-12-18T02:48:26;1.80;99.90
6357;DHT22;3211;53.452;-2.264;2022-12-18T02:50:59;1.70;99.90
6357;DHT22;3211;53.452;-2.264;2022-12-18T02:53:36;1.80;99.90
6357;DHT22;3211;53.452;-2.264;2022-12-18T02:56:09;1.70;99.90
6357;DHT22;3211;53.452;-2.264;2022-12-18T02:58:59;1.80;99.90
6357;DHT22;3211;53.452;-2.264;2022-12-18T03:01:33;1.80;99.90
6357;DHT22;3211;53.452;-2.264;2022-12-18T03:04:04;1.80;99.90
6357;DHT22;3211;53.452;-2.264;2022-12-18T03:06:38;1.80;99.90
6357;DHT22;3211;53.452;-2.264;2022-12-18T03:09:10;1.90;99.90
6357;DHT22;3211;53.452;-2.264;2022-12-18T03:11:41;1.90;99.90
6357;DHT22;3211;53.452;-2.264;2022-12-18T03:14:31;1.80;99.90
6357;DHT22;3211;53.452;-2.264;2022-12-18T03:17:02;1.90;99.90
6357;DHT22;3211;53.452;-2.264;2022-12-18T03:19:49;1.80;99.90
6357;DHT22;3211;53.452;-2.264;2022-12-18T03:22:20;1.80;99.90
6357;DHT22;3211;53.452;-2.264;2022-12-18T03:24:48;1.80;99.90
6357;DHT22;3211;53.452;-2.264;2022-12-18T03:27:20;1.70;99.90
6357;DHT22;3211;53.452;-2.264;2022-12-18T03:29:53;1.70;99.90
6357;DHT22;3211;53.452;-2.264;2022-12-18T03:32:27;1.60;99.90
6357;DHT22;3211;53.452;-2.264;2022-12-18T03:34:59;1.70;99.90
6357;DHT22;3211;53.452;-2.264;2022-12-18T03:37:28;1.60;99.90
6357;DHT22;3211;53.452;-2.264;2022-12-18T03:39:58;1.70;99.90
6357;DHT22;3211;53.452;-2.264;2022-12-18T03:42:31;1.80;99.90
6357;DHT22;3211;53.452;-2.264;2022-12-18T03:45:07;1.70;99.90
6357;DHT22;3211;53.452;-2.264;2022-12-18T03:47:59;1.80;99.90
6357;DHT22;3211;53.452;-2.264;2022-12-18T03:50:35;1.80;99.90
6357;DHT22;3211;53.452;-2.264;2022-12-18T03:53:12;1.60;99.90
6357;DHT22;3211;53.452;-2.264;2022-12-18T03:55:41;1.60;99.90
6357;DHT22;3211;53.452;-2.264;2022-12-18T03:58:11;1.70;99.90
6357;DHT22;3211;53.452;-2.264;2022-12-18T04:00:41;1.60;99.90
6357;DHT22;3211;53.452;-2.264;2022-12-18T04:03:09;1.60;99.90
6357;DHT22;3211;53.452;-2.264;2022-12-18T04:05:41;1.60;99.90
6357;DHT22;3211;53.452;-2.264;2022-12-18T04:08:09;1.60;99.90
6357;DHT22;3211;53.452;-2.264;2022-12-18T04:10:36;1.50;99.90
6357;DHT22;3211;53.452;-2.264;2022-12-18T04:13:03;1.50;99.90
6357;DHT22;3211;53.452;-2.264;2022-12-18T04:15:32;1.50;99.90
6357;DHT22;3211;53.452;-2.264;2022-12-18T04:18:02;1.50;99.90
6357;DHT22;3211;53.452;-2.264;2022-12-18T04:20:29;1.50;99.90
6357;DHT22;3211;53.452;-2.264;2022-12-18T04:22:56;1.40;99.90
6357;DHT22;3211;53.452;-2.264;2022-12-18T04:25:26;1.40;99.90
6357;DHT22;3211;53.452;-2.264;2022-12-18T04:27:53;1.40;99.90
6357;DHT22;3211;53.452;-2.264;2022-12-18T04:30:20;1.40;99.90
6357;DHT22;3211;53.452;-2.264;2022-12-18T04:32:47;1.50;99.90
6357;DHT22;3211;53.452;-2.264;2022-12-18T04:35:18;1.50;99.90
6357;DHT22;3211;53.452;-2.264;2022-12-18T04:37:45;1.40;99.90
6357;DHT22;3211;53.452;-2.264;2022-12-18T04:40:15;1.30;99.90
6357;DHT22;3211;53.452;-2.264;2022-12-18T04:42:42;1.30;99.90
6357;DHT22;3211;53.452;-2.264;2022-12-18T04:45:09;1.30;99.90
6357;DHT22;3211;53.452;-2.264;2022-12-18T04:47:36;1.30;99.90
6357;DHT22;3211;53.452;-2.264;2022-12-18T04:50:04;1.30;99.90
6357;DHT22;3211;53.452;-2.264;2022-12-18T04:52:51;1.20;99.90
6357;DHT22;3211;53.452;-2.264;2022-12-18T04:55:18;1.20;99.90
6357;DHT22;3211;53.452;-2.264;2022-12-18T04:57:45;1.30;99.90
6357;DHT22;3211;53.452;-2.264;2022-12-18T05:00:13;1.30;99.90
6357;DHT22;3211;53.452;-2.264;2022-12-18T05:02:41;1.30;99.90
6357;DHT22;3211;53.452;-2.264;2022-12-18T05:05:11;1.20;99.90
6357;DHT22;3211;53.452;-2.264;2022-12-18T05:07:38;1.20;99.90
6357;DHT22;3211;53.452;-2.264;2022-12-18T05:10:07;1.30;99.90
6357;DHT22;3211;53.452;-2.264;2022-12-18T05:12:34;1.30;99.90
6357;DHT22;3211;53.452;-2.264;2022-12-18T05:15:21;1.30;99.90
6357;DHT22;3211;53.452;-2.264;2022-12-18T05:17:48;1.30;99.90
6357;DHT22;3211;53.452;-2.264;2022-12-18T05:20:15;1.40;99.90
6357;DHT22;3211;53.452;-2.264;2022-12-18T05:22:43;1.40;99.90
6357;DHT22;3211;53.452;-2.264;2022-12-18T05:25:30;1.30;99.90
6357;DHT22;3211;53.452;-2.264;2022-12-18T05:27:57;1.30;99.90
6357;DHT22;3211;53.452;-2.264;2022-12-18T05:30:24;1.40;99.90
6357;DHT22;3211;53.452;-2.264;2022-12-18T05:32:51;1.50;99.90
6357;DHT22;3211;53.452;-2.264;2022-12-18T05:35:37;1.40;99.90
6357;DHT22;3211;53.452;-2.264;2022-12-18T05:38:03;1.40;99.90
6357;DHT22;3211;53.452;-2.264;2022-12-18T05:40:51;1.50;99.90
6357;DHT22;3211;53.452;-2.264;2022-12-18T05:43:19;1.40;99.90
6357;DHT22;3211;53.452;-2.264;2022-12-18T05:45:47;1.40;99.90
6357;DHT22;3211;53.452;-2.264;2022-12-18T05:48:14;1.40;99.90
6357;DHT22;3211;53.452;-2.264;2022-12-18T05:50:43;1.50;99.90
6357;DHT22;3211;53.452;-2.264;2022-12-18T05:53:12;1.50;99.90
6357;DHT22;3211;53.452;-2.264;2022-12-18T05:55:40;1.50;99.90
6357;DHT22;3211;53.452;-2.264;2022-12-18T05:58:10;1.50;99.90
6357;DHT22;3211;53.452;-2.264;2022-12-18T06:00:39;1.60;99.90
6357;DHT22;3211;53.452;-2.264;2022-12-18T06:03:07;1.50;99.90
6357;DHT22;3211;53.452;-2.264;2022-12-18T06:05:35;1.60;99.90
6357;DHT22;3211;53.452;-2.264;2022-12-18T06:08:02;1.60;99.90
6357;DHT22;3211;53.452;-2.264;2022-12-18T06:10:30;1.50;99.90
6357;DHT22;3211;53.452;-2.264;2022-12-18T06:12:57;1.60;99.90
6357;DHT22;3211;53.452;-2.264;2022-12-18T06:15:25;1.60;99.90
6357;DHT22;3211;53.452;-2.264;2022-12-18T06:17:52;1.70;99.90
6357;DHT22;3211;53.452;-2.264;2022-12-18T06:20:19;1.80;99.90
6357;DHT22;3211;53.452;-2.264;2022-12-18T06:22:46;1.80;99.90
6357;DHT22;3211;53.452;-2.264;2022-12-18T06:25:13;1.70;99.90
6357;DHT22;3211;53.452;-2.264;2022-12-18T06:27:40;1.70;99.90
6357;DHT22;3211;53.452;-2.264;2022-12-18T06:30:09;1.80;99.90
6357;DHT22;3211;53.452;-2.264;2022-12-18T06:32:37;1.80;99.90
6357;DHT22;3211;53.452;-2.264;2022-12-18T06:35:05;1.90;99.90
6357;DHT22;3211;53.452;-2.264;2022-12-18T06:37:32;1.90;99.90
6357;DHT22;3211;53.452;-2.264;2022-12-18T06:39:59;2.00;99.90
6357;DHT22;3211;53.452;-2.264;2022-12-18T06:42:26;2.10;99.90
6357;DHT22;3211;53.452;-2.264;2022-12-18T06:44:53;2.00;99.90
6357;DHT22;3211;53.452;-2.264;2022-12-18T06:47:20;2.00;99.90
6357;DHT22;3211;53.452;-2.264;2022-12-18T06:49:48;2.00;99.90
6357;DHT22;3211;53.452;-2.264;2022-12-18T06:52:15;2.10;99.90
6357;DHT22;3211;53.452;-2.264;2022-12-18T06:54:42;2.10;99.90
6357;DHT22;3211;53.452;-2.264;2022-12-18T06:57:09;2.10;99.90
6357;DHT22;3211;53.452;-2.264;2022-12-18T06:59:36;2.10;99.90
6357;DHT22;3211;53.452;-2.264;2022-12-18T07:02:03;2.10;99.90
6357;DHT22;3211;53.452;-2.264;2022-12-18T07:04:30;2.10;99.90
6357;DHT22;3211;53.452;-2.264;2022-12-18T07:06:59;2.10;99.90
6357;DHT22;3211;53.452;-2.264;2022-12-18T07:09:26;2.10;99.90
6357;DHT22;3211;53.452;-2.264;2022-12-18T07:11:52;2.30;99.90
6357;DHT22;3211;53.452;-2.264;2022-12-18T07:14:19;2.30;99.90
6357;DHT22;3211;53.452;-2.264;2022-12-18T07:16:46;2.30;99.90
6357;DHT22;3211;53.452;-2.264;2022-12-18T07:19:13;2.20;99.90
6357;DHT22;3211;53.452;-2.264;2022-12-18T07:21:40;2.20;99.90
6357;DHT22;3211;53.452;-2.264;2022-12-18T07:24:09;2.20;99.90
6357;DHT22;3211;53.452;-2.264;2022-12-18T07:26:36;2.20;99.90
6357;DHT22;3211;53.452;-2.264;2022-12-18T07:29:02;2.20;99.90
6357;DHT22;3211;53.452;-2.264;2022-12-18T07:31:29;2.20;99.90
6357;DHT22;3211;53.452;-2.264;2022-12-18T07:33:56;2.20;99.90
6357;DHT22;3211;53.452;-2.264;2022-12-18T07:36:24;2.30;99.90
6357;DHT22;3211;53.452;-2.264;2022-12-18T07:38:51;2.20;99.90
6357;DHT22;3211;53.452;-2.264;2022-12-18T07:41:20;2.10;99.90
6357;DHT22;3211;53.452;-2.264;2022-12-18T07:43:47;2.20;99.90
6357;DHT22;3211;53.452;-2.264;2022-12-18T07:46:15;2.20;99.90
6357;DHT22;3211;53.452;-2.264;2022-12-18T07:48:42;2.40;99.90
6357;DHT22;3211;53.452;-2.264;2022-12-18T07:51:09;2.40;99.90
6357;DHT22;3211;53.452;-2.264;2022-12-18T07:53:36;2.30;99.90
6357;DHT22;3211;53.452;-2.264;2022-12-18T07:56:05;2.40;99.90
6357;DHT22;3211;53.452;-2.264;2022-12-18T07:58:34;2.40;99.90
6357;DHT22;3211;53.452;-2.264;2022-12-18T08:01:05;2.50;99.90
6357;DHT22;3211;53.452;-2.264;2022-12-18T08:03:33;2.50;99.90
6357;DHT22;3211;53.452;-2.264;2022-12-18T08:06:00;2.50;99.90
6357;DHT22;3211;53.452;-2.264;2022-12-18T08:08:27;2.50;99.90
6357;DHT22;3211;53.452;-2.264;2022-12-18T08:10:54;2.50;99.90
6357;DHT22;3211;53.452;-2.264;2022-12-18T08:13:21;2.60;99.90
6357;DHT22;3211;53.452;-2.264;2022-12-18T08:15:57;2.60;99.90
6357;DHT22;3211;53.452;-2.264;2022-12-18T08:18:24;2.60;99.90
6357;DHT22;3211;53.452;-2.264;2022-12-18T08:20:51;2.50;99.90
6357;DHT22;3211;53.452;-2.264;2022-12-18T08:23:18;2.50;99.90
6357;DHT22;3211;53.452;-2.264;2022-12-18T08:25:45;2.60;99.90
6357;DHT22;3211;53.452;-2.264;2022-12-18T08:28:12;2.60;99.90
6357;DHT22;3211;53.452;-2.264;2022-12-18T08:30:39;2.50;99.90
6357;DHT22;3211;53.452;-2.264;2022-12-18T08:33:07;2.50;99.90
6357;DHT22;3211;53.452;-2.264;2022-12-18T08:35:35;2.50;99.90
6357;DHT22;3211;53.452;-2.264;2022-12-18T08:38:03;2.50;99.90
6357;DHT22;3211;53.452;-2.264;2022-12-18T08:40:30;2.60;99.90
6357;DHT22;3211;53.452;-2.264;2022-12-18T08:42:57;2.50;99.90
6357;DHT22;3211;53.452;-2.264;2022-12-18T08:45:41;2.50;99.90
6357;DHT22;3211;53.452;-2.264;2022-12-18T08:48:09;2.50;99.90
6357;DHT22;3211;53.452;-2.264;2022-12-18T08:50:36;2.40;99.90
6357;DHT22;3211;53.452;-2.264;2022-12-18T08:53:03;2.40;99.90
6357;DHT22;3211;53.452;-2.264;2022-12-18T08:55:30;2.40;99.90
6357;DHT22;3211;53.452;-2.264;2022-12-18T08:58:06;2.40;99.90
6357;DHT22;3211;53.452;-2.264;2022-12-18T09:00:33;2.50;99.90
6357;DHT22;3211;53.452;-2.264;2022-12-18T09:03:00;2.40;99.90
6357;DHT22;3211;53.452;-2.264;2022-12-18T09:05:29;2.40;99.90
6357;DHT22;3211;53.452;-2.264;2022-12-18T09:07:56;2.50;99.90
6357;DHT22;3211;53.452;-2.264;2022-12-18T09:10:23;2.40;99.90
6357;DHT22;3211;53.452;-2.264;2022-12-18T09:12:50;2.60;99.90
6357;DHT22;3211;53.452;-2.264;2022-12-18T09:15:17;2.50;99.90
6357;DHT22;3211;53.452;-2.264;2022-12-18T09:17:44;2.60;99.90
6357;DHT22;3211;53.452;-2.264;2022-12-18T09:20:11;2.60;99.90
6357;DHT22;3211;53.452;-2.264;2022-12-18T09:22:39;2.60;99.90
6357;DHT22;3211;53.452;-2.264;2022-12-18T09:25:06;2.70;99.90
6357;DHT22;3211;53.452;-2.264;2022-12-18T09:27:34;2.70;99.90
6357;DHT22;3211;53.452;-2.264;2022-12-18T09:30:01;2.70;99.90
6357;DHT22;3211;53.452;-2.264;2022-12-18T09:32:28;2.70;99.90
6357;DHT22;3211;53.452;-2.264;2022-12-18T09:34:55;2.80;99.90
6357;DHT22;3211;53.452;-2.264;2022-12-18T09:37:23;2.80;99.90
6357;DHT22;3211;53.452;-2.264;2022-12-18T09:39:52;2.80;99.90
6357;DHT22;3211;53.452;-2.264;2022-12-18T09:42:21;2.80;99.90
6357;DHT22;3211;53.452;-2.264;2022-12-18T09:44:50;2.80;99.90
6357;DHT22;3211;53.452;-2.264;2022-12-18T09:47:22;2.70;99.90
6357;DHT22;3211;53.452;-2.264;2022-12-18T09:49:53;2.80;99.90
6357;DHT22;3211;53.452;-2.264;2022-12-18T09:52:25;2.80;99.90
6357;DHT22;3211;53.452;-2.264;2022-12-18T09:54:58;2.80;99.90
6357;DHT22;3211;53.452;-2.264;2022-12-18T09:57:28;2.80;99.90
6357;DHT22;3211;53.452;-2.264;2022-12-18T10:00:03;2.80;99.90
6357;DHT22;3211;53.452;-2.264;2022-12-18T10:02:31;2.70;99.90
6357;DHT22;3211;53.452;-2.264;2022-12-18T10:05:04;2.80;99.90
6357;DHT22;3211;53.452;-2.264;2022-12-18T10:07:49;2.80;99.90
6357;DHT22;3211;53.452;-2.264;2022-12-18T10:10:26;2.70;99.90
6357;DHT22;3211;53.452;-2.264;2022-12-18T10:13:02;2.80;99.90
6357;DHT22;3211;53.452;-2.264;2022-12-18T10:15:36;2.90;99.90
6357;DHT22;3211;53.452;-2.264;2022-12-18T10:18:18;2.90;99.90
6357;DHT22;3211;53.452;-2.264;2022-12-18T10:20:50;3.00;99.90
6357;DHT22;3211;53.452;-2.264;2022-12-18T10:23:24;3.00;99.90
6357;DHT22;3211;53.452;-2.264;2022-12-18T10:25:57;2.90;99.90
6357;DHT22;3211;53.452;-2.264;2022-12-18T10:28:26;2.90;99.90
6357;DHT22;3211;53.452;-2.264;2022-12-18T10:30:55;2.90;99.90
6357;DHT22;3211;53.452;-2.264;2022-12-18T10:33:24;2.90;99.90
6357;DHT22;3211;53.452;-2.264;2022-12-18T10:35:51;3.00;99.90
6357;DHT22;3211;53.452;-2.264;2022-12-18T10:38:24;3.00;99.90
6357;DHT22;3211;53.452;-2.264;2022-12-18T10:40:55;3.20;99.90
6357;DHT22;3211;53.452;-2.264;2022-12-18T10:43:25;3.20;99.90
6357;DHT22;3211;53.452;-2.264;2022-12-18T10:48:51;3.10;99.90
6357;DHT22;3211;53.452;-2.264;2022-12-18T10:51:21;3.20;99.90
6357;DHT22;3211;53.452;-2.264;2022-12-18T10:53:56;3.20;99.90
6357;DHT22;3211;53.452;-2.264;2022-12-18T10:56:28;3.20;99.90
6357;DHT22;3211;53.452;-2.264;2022-12-18T10:58:59;3.20;99.90
6357;DHT22;3211;53.452;-2.264;2022-12-18T11:01:27;3.20;99.90
6357;DHT22;3211;53.452;-2.264;2022-12-18T11:04:07;3.20;99.90
6357;DHT22;3211;53.452;-2.264;2022-12-18T11:06:53;3.20;99.90
6357;DHT22;3211;53.452;-2.264;2022-12-18T11:09:22;3.10;99.90
6357;DHT22;3211;53.452;-2.264;2022-12-18T11:11:51;3.20;99.90
6357;DHT22;3211;53.452;-2.264;2022-12-18T11:14:22;3.20;99.90
6357;DHT22;3211;53.452;-2.264;2022-12-18T11:16:51;3.20;99.90
6357;DHT22;3211;53.452;-2.264;2022-12-18T11:19:28;3.20;99.90
6357;DHT22;3211;53.452;-2.264;2022-12-18T11:21:57;3.30;99.90
6357;DHT22;3211;53.452;-2.264;2022-12-18T11:24:28;3.40;99.90
6357;DHT22;3211;53.452;-2.264;2022-12-18T11:26:58;3.40;99.90
6357;DHT22;3211;53.452;-2.264;2022-12-18T11:29:32;3.30;99.90
6357;DHT22;3211;53.452;-2.264;2022-12-18T11:32:31;3.40;99.90
6357;DHT22;3211;53.452;-2.264;2022-12-18T11:35:10;3.30;99.90
6357;DHT22;3211;53.452;-2.264;2022-12-18T11:37:39;3.30;99.90
6357;DHT22;3211;53.452;-2.264;2022-12-18T11:40:13;3.30;99.90
6357;DHT22;3211;53.452;-2.264;2022-12-18T11:42:46;3.30;99.90
6357;DHT22;3211;53.452;-2.264;2022-12-18T11:45:27;3.40;99.90
6357;DHT22;3211;53.452;-2.264;2022-12-18T11:47:57;3.40;99.90
6357;DHT22;3211;53.452;-2.264;2022-12-18T11:50:28;3.40;99.90
6357;DHT22;3211;53.452;-2.264;2022-12-18T11:52:56;3.30;99.90
6357;DHT22;3211;53.452;-2.264;2022-12-18T11:55:31;3.30;99.90
6357;DHT22;3211;53.452;-2.264;2022-12-18T11:58:07;3.30;99.90
6357;DHT22;3211;53.452;-2.264;2022-12-18T12:00:39;3.40;99.90
6357;DHT22;3211;53.452;-2.264;2022-12-18T12:03:41;3.50;99.90
6357;DHT22;3211;53.452;-2.264;2022-12-18T12:06:18;3.50;99.90
6357;DHT22;3211;53.452;-2.264;2022-12-18T12:09:00;3.50;99.90
6357;DHT22;3211;53.452;-2.264;2022-12-18T12:11:43;3.40;99.90
6357;DHT22;3211;53.452;-2.264;2022-12-18T12:14:24;3.50;99.90
6357;DHT22;3211;53.452;-2.264;2022-12-18T12:16:58;3.60;99.90
6357;DHT22;3211;53.452;-2.264;2022-12-18T12:19:36;3.70;99.90
6357;DHT22;3211;53.452;-2.264;2022-12-18T12:22:10;3.60;99.90
6357;DHT22;3211;53.452;-2.264;2022-12-18T12:24:50;3.80;99.90
6357;DHT22;3211;53.452;-2.264;2022-12-18T12:27:36;3.80;99.90
6357;DHT22;3211;53.452;-2.264;2022-12-18T12:30:08;3.80;99.90
6357;DHT22;3211;53.452;-2.264;2022-12-18T12:32:43;3.80;99.90
6357;DHT22;3211;53.452;-2.264;2022-12-18T12:35:25;3.90;99.90
6357;DHT22;3211;53.452;-2.264;2022-12-18T12:38:02;3.90;99.90
6357;DHT22;3211;53.452;-2.264;2022-12-18T12:40:34;3.90;99.90
6357;DHT22;3211;53.452;-2.264;2022-12-18T12:43:07;3.90;99.90
6357;DHT22;3211;53.452;-2.264;2022-12-18T12:45:44;3.90;99.90
6357;DHT22;3211;53.452;-2.264;2022-12-18T12:48:18;3.80;99.90
6357;DHT22;3211;53.452;-2.264;2022-12-18T12:50:47;3.80;99.90
6357;DHT22;3211;53.452;-2.264;2022-12-18T12:53:23;3.70;99.90
6357;DHT22;3211;53.452;-2.264;2022-12-18T12:55:52;3.80;99.90
6357;DHT22;3211;53.452;-2.264;2022-12-18T12:58:28;3.80;99.90
6357;DHT22;3211;53.452;-2.264;2022-12-18T13:01:05;3.70;99.90
6357;DHT22;3211;53.452;-2.264;2022-12-18T13:03:43;3.70;99.90
6357;DHT22;3211;53.452;-2.264;2022-12-18T13:06:19;3.70;99.90
6357;DHT22;3211;53.452;-2.264;2022-12-18T13:08:55;3.70;99.90
6357;DHT22;3211;53.452;-2.264;2022-12-18T13:11:35;3.80;99.90
6357;DHT22;3211;53.452;-2.264;2022-12-18T13:14:36;3.70;99.90
6357;DHT22;3211;53.452;-2.264;2022-12-18T13:17:17;3.70;99.90
6357;DHT22;3211;53.452;-2.264;2022-12-18T13:19:52;3.70;99.90
6357;DHT22;3211;53.452;-2.264;2022-12-18T13:22:36;3.80;99.90
6357;DHT22;3211;53.452;-2.264;2022-12-18T13:25:20;3.70;99.90
6357;DHT22;3211;53.452;-2.264;2022-12-18T13:28:06;3.80;99.90
6357;DHT22;3211;53.452;-2.264;2022-12-18T13:30:49;3.80;99.90
6357;DHT22;3211;53.452;-2.264;2022-12-18T13:33:50;3.80;99.90
6357;DHT22;3211;53.452;-2.264;2022-12-18T13:36:29;3.90;99.90
6357;DHT22;3211;53.452;-2.264;2022-12-18T13:39:21;3.80;99.90
6357;DHT22;3211;53.452;-2.264;2022-12-18T13:41:51;3.80;99.90
6357;DHT22;3211;53.452;-2.264;2022-12-18T13:44:30;3.80;99.90
6357;DHT22;3211;53.452;-2.264;2022-12-18T13:46:58;3.80;99.90
6357;DHT22;3211;53.452;-2.264;2022-12-18T13:49:35;3.80;99.90
6357;DHT22;3211;53.452;-2.264;2022-12-18T13:52:16;3.80;99.90
6357;DHT22;3211;53.452;-2.264;2022-12-18T13:54:47;3.80;99.90
6357;DHT22;3211;53.452;-2.264;2022-12-18T13:57:26;3.80;99.90
6357;DHT22;3211;53.452;-2.264;2022-12-18T13:59:53;3.70;99.90
6357;DHT22;3211;53.452;-2.264;2022-12-18T14:02:22;3.70;99.90
6357;DHT22;3211;53.452;-2.264;2022-12-18T14:04:52;3.80;99.90
6357;DHT22;3211;53.452;-2.264;2022-12-18T14:07:21;3.70;99.90
6357;DHT22;3211;53.452;-2.264;2022-12-18T14:09:50;3.80;99.90
6357;DHT22;3211;53.452;-2.264;2022-12-18T14:12:20;3.80;99.90
6357;DHT22;3211;53.452;-2.264;2022-12-18T14:15:09;3.80;99.90
6357;DHT22;3211;53.452;-2.264;2022-12-18T14:17:42;3.80;99.90
6357;DHT22;3211;53.452;-2.264;2022-12-18T14:20:14;3.80;99.90
6357;DHT22;3211;53.452;-2.264;2022-12-18T14:22:43;3.70;99.90
6357;DHT22;3211;53.452;-2.264;2022-12-18T14:25:17;3.70;99.90
6357;DHT22;3211;53.452;-2.264;2022-12-18T14:27:46;3.70;99.90
6357;DHT22;3211;53.452;-2.264;2022-12-18T14:30:28;3.70;99.90
6357;DHT22;3211;53.452;-2.264;2022-12-18T14:33:04;3.60;99.90
6357;DHT22;3211;53.452;-2.264;2022-12-18T14:35:34;3.60;99.90
6357;DHT22;3211;53.452;-2.264;2022-12-18T14:38:26;3.70;99.90
6357;DHT22;3211;53.452;-2.264;2022-12-18T14:40:58;3.70;99.90
6357;DHT22;3211;53.452;-2.264;2022-12-18T14:43:26;3.70;99.90
6357;DHT22;3211;53.452;-2.264;2022-12-18T14:45:54;3.70;99.90
6357;DHT22;3211;53.452;-2.264;2022-12-18T14:48:25;3.60;99.90
6357;DHT22;3211;53.452;-2.264;2022-12-18T14:51:02;3.70;99.90
6357;DHT22;3211;53.452;-2.264;2022-12-18T14:53:34;3.70;99.90
6357;DHT22;3211;53.452;-2.264;2022-12-18T14:56:03;3.60;99.90
6357;DHT22;3211;53.452;-2.264;2022-12-18T14:58:37;3.60;99.90
6357;DHT22;3211;53.452;-2.264;2022-12-18T15:01:05;3.60;99.90
6357;DHT22;3211;53.452;-2.264;2022-12-18T15:03:33;3.70;99.90
6357;DHT22;3211;53.452;-2.264;2022-12-18T15:08:53;3.80;99.90
6357;DHT22;3211;53.452;-2.264;2022-12-18T15:11:35;3.80;99.90
6357;DHT22;3211;53.452;-2.264;2022-12-18T15:14:23;3.80;99.90
6357;DHT22;3211;53.452;-2.264;2022-12-18T15:16:52;3.90;99.90
6357;DHT22;3211;53.452;-2.264;2022-12-18T15:19:21;3.90;99.90
6357;DHT22;3211;53.452;-2.264;2022-12-18T15:21:49;4.00;99.90
6357;DHT22;3211;53.452;-2.264;2022-12-18T15:24:24;4.00;99.90
6357;DHT22;3211;53.452;-2.264;2022-12-18T15:26:53;4.00;99.90
6357;DHT22;3211;53.452;-2.264;2022-12-18T15:29:21;4.10;99.90
6357;DHT22;3211;53.452;-2.264;2022-12-18T15:31:59;4.10;99.90
6357;DHT22;3211;53.452;-2.264;2022-12-18T15:34:27;4.10;99.90
6357;DHT22;3211;53.452;-2.264;2022-12-18T15:36:54;4.10;99.90
6357;DHT22;3211;53.452;-2.264;2022-12-18T15:39:22;4.10;99.90
6357;DHT22;3211;53.452;-2.264;2022-12-18T15:41:49;4.20;99.90
6357;DHT22;3211;53.452;-2.264;2022-12-18T15:44:34;4.20;99.90
6357;DHT22;3211;53.452;-2.264;2022-12-18T15:47:01;4.30;99.90
6357;DHT22;3211;53.452;-2.264;2022-12-18T15:49:28;4.40;99.90
6357;DHT22;3211;53.452;-2.264;2022-12-18T15:51:57;4.40;99.90
6357;DHT22;3211;53.452;-2.264;2022-12-18T15:54:26;4.30;99.90
6357;DHT22;3211;53.452;-2.264;2022-12-18T15:57:10;4.40;99.90
6357;DHT22;3211;53.452;-2.264;2022-12-18T15:59:49;4.50;99.90
6357;DHT22;3211;53.452;-2.264;2022-12-18T16:02:19;4.50;99.90
6357;DHT22;3211;53.452;-2.264;2022-12-18T16:04:48;4.30;99.90
6357;DHT22;3211;53.452;-2.264;2022-12-18T16:07:15;4.30;99.90
6357;DHT22;3211;53.452;-2.264;2022-12-18T16:09:44;4.40;99.90
6357;DHT22;3211;53.452;-2.264;2022-12-18T16:12:19;4.40;99.90
6357;DHT22;3211;53.452;-2.264;2022-12-18T16:14:47;4.50;99.90
6357;DHT22;3211;53.452;-2.264;2022-12-18T16:17:14;4.50;99.90
6357;DHT22;3211;53.452;-2.264;2022-12-18T16:19:41;4.50;99.90
6357;DHT22;3211;53.452;-2.264;2022-12-18T16:22:18;4.60;99.90
6357;DHT22;3211;53.452;-2.264;2022-12-18T16:24:48;4.70;99.90
6357;DHT22;3211;53.452;-2.264;2022-12-18T16:27:15;4.70;99.90
6357;DHT22;3211;53.452;-2.264;2022-12-18T16:29:42;4.80;99.90
6357;DHT22;3211;53.452;-2.264;2022-12-18T16:32:12;4.90;99.90
6357;DHT22;3211;53.452;-2.264;2022-12-18T16:34:40;5.00;99.90